Time;durP1;ratioP1;P1;durP2;ratioP2;P2;SDS_P1;SDS_P2;PMS_P1;PMS_P2;Temp;Humidity;BMP_temperature;BMP_pressure;BME280_temperature;BME280_humidity;BME280_pressure;Samples;Min_cycle;Max_cycle;Signal;HPM_P1;HPM_P2
2021/12/09 00:00:55;;;;;;;14.63;8.25;;;;;;;;;;5057519;28;20024;-89
2021/12/09 00:03:21;;;;;;;13.60;7.85;;;;;;;;;;5075571;28;20033;-88
2021/12/09 00:05:47;;;;;;;13.82;8.30;;;;;;;;;;5057372;28;20035;-89
2021/12/09 00:08:12;;;;;;;19.10;9.95;;;;;;;;;;5057745;28;20036;-88
2021/12/09 00:10:37;;;;;;;15.93;9.38;;;;;;;;;;5057758;28;20089;-89
2021/12/09 00:13:03;;;;;;;11.07;7.20;;;;;;;;;;5040961;28;20115;-88
2021/12/09 00:15:28;;;;;;;13.02;6.78;;;;;;;;;;5075074;28;20511;-88
2021/12/09 00:17:53;;;;;;;12.73;7.38;;;;;;;;;;5074709;28;20491;-88
2021/12/09 00:20:19;;;;;;;10.05;6.13;;;;;;;;;;5075345;28;20043;-90
2021/12/09 00:22:44;;;;;;;9.52;6.63;;;;;;;;;;5074738;28;20044;-88
2021/12/09 00:25:10;;;;;;;13.30;6.95;;;;;;;;;;5057202;28;20090;-89
2021/12/09 00:27:35;;;;;;;26.02;9.10;;;;;;;;;;5058138;28;20034;-89
2021/12/09 00:30:00;;;;;;;20.88;9.18;;;;;;;;;;5076608;28;20090;-89
2021/12/09 00:32:26;;;;;;;16.23;7.57;;;;;;;;;;5057582;28;20032;-88
2021/12/09 00:34:52;;;;;;;16.02;7.55;;;;;;;;;;5075443;28;20079;-87
2021/12/09 00:37:30;;;;;;;22.52;8.10;;;;;;;;;;5057042;28;20037;-89
2021/12/09 00:39:56;;;;;;;17.05;7.78;;;;;;;;;;5057108;28;20032;-89
2021/12/09 00:42:21;;;;;;;13.45;7.78;;;;;;;;;;5057877;28;20044;-89
2021/12/09 00:44:46;;;;;;;16.13;7.85;;;;;;;;;;5057681;28;20078;-89
2021/12/09 00:47:11;;;;;;;15.05;8.30;;;;;;;;;;5040687;28;20047;-89
2021/12/09 00:49:37;;;;;;;16.20;8.38;;;;;;;;;;5075452;28;20043;-88
2021/12/09 00:52:02;;;;;;;12.55;6.97;;;;;;;;;;5057809;28;20071;-88
2021/12/09 00:54:27;;;;;;;10.55;6.40;;;;;;;;;;5056701;28;20082;-89
2021/12/09 00:56:53;;;;;;;8.75;6.30;;;;;;;;;;5040208;28;20036;-89
2021/12/09 00:59:18;;;;;;;13.65;7.93;;;;;;;;;;5040695;28;20381;-88
2021/12/09 01:01:43;;;;;;;12.82;7.97;;;;;;;;;;5057160;28;20074;-88
2021/12/09 01:04:09;;;;;;;13.50;7.72;;;;;;;;;;5074936;28;20063;-88
2021/12/09 01:06:34;;;;;;;11.35;6.25;;;;;;;;;;5057501;28;20043;-88
2021/12/09 01:08:59;;;;;;;12.48;6.75;;;;;;;;;;5074455;28;20044;-90
2021/12/09 01:11:25;;;;;;;8.88;6.03;;;;;;;;;;5075907;28;20028;-88
2021/12/09 01:13:50;;;;;;;9.13;5.82;;;;;;;;;;5062548;28;20037;-88
2021/12/09 01:16:15;;;;;;;8.77;5.90;;;;;;;;;;5043851;28;20035;-89
2021/12/09 01:18:40;;;;;;;9.30;6.25;;;;;;;;;;5060313;28;20036;-89
2021/12/09 01:21:06;;;;;;;9.73;6.53;;;;;;;;;;5079565;28;20029;-89
2021/12/09 01:23:31;;;;;;;11.30;6.60;;;;;;;;;;5044108;28;20127;-88
2021/12/09 01:25:58;;;;;;;10.75;7.07;;;;;;;;;;5044255;28;20086;-88
2021/12/09 01:28:27;;;;;;;11.70;6.97;;;;;;;;;;5078986;28;20090;-88
2021/12/09 01:31:00;;;;;;;13.00;7.43;;;;;;;;;;5061075;28;20043;-88
2021/12/09 01:33:25;;;;;;;11.70;7.13;;;;;;;;;;5061463;28;20468;-89
2021/12/09 01:35:51;;;;;;;10.85;6.53;;;;;;;;;;5079044;28;20026;-89
2021/12/09 01:38:17;;;;;;;10.82;6.38;;;;;;;;;;5064687;28;20131;-91
2021/12/09 01:40:42;;;;;;;9.13;6.55;;;;;;;;;;5063029;28;20112;-89
2021/12/09 01:43:08;;;;;;;10.85;6.50;;;;;;;;;;5079581;28;20139;-89
2021/12/09 01:45:33;;;;;;;13.30;6.55;;;;;;;;;;5060781;28;20036;-88
2021/12/09 01:47:58;;;;;;;10.82;6.28;;;;;;;;;;5079320;28;20027;-89
2021/12/09 01:50:24;;;;;;;9.23;6.45;;;;;;;;;;5078848;28;20520;-88
2021/12/09 01:52:49;;;;;;;10.90;6.57;;;;;;;;;;5078905;28;20028;-88
2021/12/09 01:55:14;;;;;;;12.57;7.18;;;;;;;;;;5077530;28;20036;-90
2021/12/09 01:57:39;;;;;;;9.23;6.60;;;;;;;;;;5060467;28;20036;-88
2021/12/09 02:00:05;;;;;;;9.23;6.40;;;;;;;;;;5060476;28;20029;-89
2021/12/09 02:02:30;;;;;;;11.93;6.88;;;;;;;;;;5060645;28;20484;-89
2021/12/09 02:04:55;;;;;;;10.35;6.45;;;;;;;;;;5043573;28;20025;-89
2021/12/09 02:07:21;;;;;;;10.27;6.45;;;;;;;;;;5043431;28;20094;-88
2021/12/09 02:09:46;;;;;;;10.32;6.53;;;;;;;;;;5059708;28;20025;-89
2021/12/09 02:12:11;;;;;;;8.98;6.35;;;;;;;;;;5060471;28;20416;-89
2021/12/09 02:14:39;;;;;;;9.82;6.60;;;;;;;;;;5080543;28;20028;-88
2021/12/09 02:17:04;;;;;;;10.40;6.63;;;;;;;;;;5042928;28;20480;-88
2021/12/09 02:19:30;;;;;;;9.80;7.00;;;;;;;;;;5043139;28;20025;-88
2021/12/09 02:21:56;;;;;;;10.98;7.10;;;;;;;;;;5059974;28;20036;-89
2021/12/09 02:24:21;;;;;;;10.27;7.15;;;;;;;;;;5059523;28;20090;-90
2021/12/09 02:26:46;;;;;;;11.48;6.85;;;;;;;;;;5059475;28;20036;-90
2021/12/09 02:29:12;;;;;;;10.63;6.57;;;;;;;;;;5077783;28;20103;-90
2021/12/09 02:31:37;;;;;;;10.15;5.93;;;;;;;;;;5043381;28;20469;-90
2021/12/09 02:34:02;;;;;;;14.20;6.57;;;;;;;;;;5077712;28;20111;-90
2021/12/09 02:36:30;;;;;;;11.98;6.70;;;;;;;;;;5059490;28;20128;-90
2021/12/09 02:38:55;;;;;;;11.63;6.70;;;;;;;;;;5043550;28;20040;-90
2021/12/09 02:41:20;;;;;;;9.82;6.30;;;;;;;;;;5059194;28;20036;-90
2021/12/09 02:43:46;;;;;;;12.77;6.78;;;;;;;;;;5060249;28;20036;-90
2021/12/09 02:46:11;;;;;;;14.07;7.25;;;;;;;;;;5059654;28;20031;-90
2021/12/09 02:48:36;;;;;;;14.90;7.20;;;;;;;;;;5060121;28;20037;-91
2021/12/09 02:51:02;;;;;;;13.23;6.85;;;;;;;;;;5042836;28;20400;-90
2021/12/09 02:53:27;;;;;;;14.48;7.80;;;;;;;;;;5059613;28;20071;-89
2021/12/09 02:55:53;;;;;;;8.70;5.47;;;;;;;;;;5041962;28;20064;-91
2021/12/09 02:58:18;;;;;;;9.63;5.10;;;;;;;;;;5060037;28;20048;-90
2021/12/09 03:00:43;;;;;;;9.80;5.30;;;;;;;;;;5059381;28;20040;-89
2021/12/09 03:03:09;;;;;;;10.20;5.97;;;;;;;;;;5076893;28;20040;-89
2021/12/09 03:05:34;;;;;;;12.40;7.05;;;;;;;;;;5042279;28;20090;-89
2021/12/09 03:08:01;;;;;;;11.80;6.50;;;;;;;;;;5076982;28;20043;-90
2021/12/09 03:10:27;;;;;;;12.65;6.38;;;;;;;;;;5076558;28;20032;-90
2021/12/09 03:12:52;;;;;;;10.95;6.45;;;;;;;;;;5059604;28;20033;-89
2021/12/09 03:15:17;;;;;;;9.88;6.60;;;;;;;;;;5076497;28;20035;-89
2021/12/09 03:17:43;;;;;;;9.75;6.85;;;;;;;;;;5058975;28;20055;-89
2021/12/09 03:20:09;;;;;;;8.88;6.50;;;;;;;;;;5059354;28;20032;-89
2021/12/09 03:22:34;;;;;;;11.30;7.25;;;;;;;;;;5059410;28;20037;-89
2021/12/09 03:25:00;;;;;;;10.65;7.38;;;;;;;;;;5076749;28;20028;-89
2021/12/09 03:27:25;;;;;;;10.55;7.15;;;;;;;;;;5059801;28;20055;-90
2021/12/09 03:29:50;;;;;;;11.55;7.53;;;;;;;;;;5042768;28;20036;-88
2021/12/09 03:32:16;;;;;;;10.88;7.53;;;;;;;;;;5059798;28;20033;-89
2021/12/09 03:34:41;;;;;;;10.18;7.20;;;;;;;;;;5042059;28;20016;-89
2021/12/09 03:37:06;;;;;;;10.70;7.45;;;;;;;;;;5058506;28;20077;-89
2021/12/09 03:39:32;;;;;;;11.27;7.28;;;;;;;;;;5058619;28;20025;-89
2021/12/09 03:41:57;;;;;;;9.60;6.43;;;;;;;;;;5059382;28;20078;-89
2021/12/09 03:44:22;;;;;;;10.23;6.47;;;;;;;;;;5059216;28;20037;-89
2021/12/09 03:46:48;;;;;;;9.57;7.03;;;;;;;;;;5076754;28;20033;-89
2021/12/09 03:49:13;;;;;;;11.95;8.07;;;;;;;;;;5042457;28;20016;-90
2021/12/09 03:51:38;;;;;;;14.93;8.30;;;;;;;;;;5076820;28;20064;-89
2021/12/09 03:54:03;;;;;;;11.40;7.75;;;;;;;;;;5058518;28;20424;-89
2021/12/09 03:56:29;;;;;;;10.32;7.40;;;;;;;;;;5041426;28;20126;-90
2021/12/09 03:58:54;;;;;;;12.73;7.95;;;;;;;;;;5058696;28;20036;-89
2021/12/09 04:01:19;;;;;;;10.68;7.75;;;;;;;;;;5076711;28;20037;-90
2021/12/09 04:03:45;;;;;;;15.10;8.60;;;;;;;;;;5076963;28;20013;-90
2021/12/09 04:06:10;;;;;;;15.45;8.77;;;;;;;;;;5041706;28;20040;-88
2021/12/09 04:08:35;;;;;;;12.95;8.90;;;;;;;;;;5057926;28;20396;-89
2021/12/09 04:11:01;;;;;;;12.57;7.68;;;;;;;;;;5042583;28;20485;-89
2021/12/09 04:13:28;;;;;;;15.80;8.68;;;;;;;;;;5058885;28;20431;-89
2021/12/09 04:15:53;;;;;;;14.45;9.20;;;;;;;;;;5058505;28;20476;-90
2021/12/09 04:18:20;;;;;;;12.43;8.50;;;;;;;;;;5058785;28;20044;-90
2021/12/09 04:20:45;;;;;;;12.32;7.97;;;;;;;;;;5059141;28;20040;-89
2021/12/09 04:23:11;;;;;;;13.63;8.82;;;;;;;;;;5041885;28;20083;-90
2021/12/09 04:25:36;;;;;;;14.75;8.38;;;;;;;;;;5058715;28;20044;-89
2021/12/09 04:28:01;;;;;;;12.55;8.40;;;;;;;;;;5059069;28;20032;-89
2021/12/09 04:30:29;;;;;;;12.30;8.00;;;;;;;;;;5042555;28;20044;-89
2021/12/09 04:32:54;;;;;;;13.63;8.20;;;;;;;;;;5042684;28;20509;-89
2021/12/09 04:35:19;;;;;;;12.38;7.82;;;;;;;;;;5058831;28;20032;-89
2021/12/09 04:37:45;;;;;;;14.38;7.85;;;;;;;;;;5059521;28;20094;-89
2021/12/09 04:40:10;;;;;;;13.45;8.05;;;;;;;;;;5059228;28;20032;-90
2021/12/09 04:42:36;;;;;;;12.18;7.47;;;;;;;;;;5059048;28;20040;-89
2021/12/09 04:45:01;;;;;;;11.75;7.47;;;;;;;;;;5058715;28;20040;-90
2021/12/09 04:47:26;;;;;;;10.55;7.63;;;;;;;;;;5061292;28;20032;-89
2021/12/09 04:49:52;;;;;;;14.32;8.82;;;;;;;;;;5063521;28;20029;-90
2021/12/09 04:52:17;;;;;;;15.60;9.70;;;;;;;;;;5062785;28;20182;-89
2021/12/09 04:54:42;;;;;;;13.77;8.52;;;;;;;;;;5044554;28;20029;-89
2021/12/09 04:57:08;;;;;;;10.15;7.18;;;;;;;;;;5061562;28;20078;-89
2021/12/09 04:59:33;;;;;;;12.70;7.60;;;;;;;;;;5061702;28;20055;-89
2021/12/09 05:01:58;;;;;;;11.82;7.40;;;;;;;;;;5061670;28;20037;-89
2021/12/09 05:04:24;;;;;;;12.43;7.53;;;;;;;;;;5061826;28;20044;-89
2021/12/09 05:06:49;;;;;;;13.82;7.90;;;;;;;;;;5044232;28;20029;-90
2021/12/09 05:09:17;;;;;;;12.15;8.18;;;;;;;;;;5044392;28;20040;-89
2021/12/09 05:14:08;;;;;;;12.18;7.45;;;;;;;;;;5062044;28;20020;-90
2021/12/09 05:16:33;;;;;;;13.18;8.02;;;;;;;;;;5078844;28;20032;-88
2021/12/09 05:18:59;;;;;;;12.93;8.13;;;;;;;;;;5044268;28;20041;-89
2021/12/09 05:21:24;;;;;;;13.18;7.82;;;;;;;;;;5062032;28;20051;-89
2021/12/09 05:23:49;;;;;;;9.77;7.00;;;;;;;;;;5061317;28;20388;-89
2021/12/09 05:26:16;;;;;;;13.55;7.65;;;;;;;;;;5079750;28;20082;-89
2021/12/09 05:28:41;;;;;;;10.68;7.53;;;;;;;;;;5062009;28;20033;-90
2021/12/09 05:33:51;;;;;;;13.45;7.75;;;;;;;;;;5061559;28;20039;-89
2021/12/09 05:36:16;;;;;;;12.80;8.10;;;;;;;;;;5078173;28;20029;-88
2021/12/09 05:38:42;;;;;;;12.63;8.18;;;;;;;;;;5060979;28;20036;-88
2021/12/09 05:41:07;;;;;;;14.32;8.32;;;;;;;;;;5060376;28;20039;-89
2021/12/09 05:43:32;;;;;;;11.20;7.95;;;;;;;;;;5078709;28;20036;-89
2021/12/09 05:45:57;;;;;;;12.18;7.40;;;;;;;;;;5044004;28;20036;-89
2021/12/09 05:48:23;;;;;;;13.32;8.80;;;;;;;;;;5078078;28;20115;-88
2021/12/09 05:50:48;;;;;;;12.77;8.55;;;;;;;;;;5061309;28;20040;-88
2021/12/09 05:53:13;;;;;;;13.43;8.77;;;;;;;;;;5043841;28;20043;-88
2021/12/09 05:55:43;;;;;;;15.68;9.07;;;;;;;;;;5059877;28;20016;-88
2021/12/09 05:58:08;;;;;;;12.88;8.63;;;;;;;;;;5042718;28;20032;-89
2021/12/09 06:00:34;;;;;;;12.20;8.52;;;;;;;;;;5045465;28;20042;-89
2021/12/09 06:02:59;;;;;;;13.40;8.15;;;;;;;;;;5061594;28;20467;-88
2021/12/09 06:05:24;;;;;;;14.20;8.75;;;;;;;;;;5043005;28;20105;-88
2021/12/09 06:07:50;;;;;;;15.00;8.95;;;;;;;;;;5079115;28;20496;-88
2021/12/09 06:10:15;;;;;;;14.50;8.70;;;;;;;;;;5060420;28;20411;-88
2021/12/09 06:12:40;;;;;;;12.95;8.93;;;;;;;;;;5077821;28;20381;-89
2021/12/09 06:15:06;;;;;;;12.77;8.63;;;;;;;;;;5077396;28;20029;-88
2021/12/09 06:17:31;;;;;;;11.07;7.30;;;;;;;;;;5059617;28;20063;-89
2021/12/09 06:19:56;;;;;;;12.48;7.85;;;;;;;;;;5060160;28;20487;-88
2021/12/09 06:22:22;;;;;;;13.48;9.07;;;;;;;;;;5060803;28;20395;-88
2021/12/09 06:24:47;;;;;;;14.55;9.13;;;;;;;;;;5060925;28;20040;-87
2021/12/09 06:27:13;;;;;;;13.43;8.23;;;;;;;;;;5078129;28;20032;-88
2021/12/09 06:29:38;;;;;;;12.77;7.97;;;;;;;;;;5044203;28;20028;-88
2021/12/09 06:32:03;;;;;;;13.32;8.57;;;;;;;;;;5060876;28;20064;-88
2021/12/09 06:34:29;;;;;;;13.98;8.63;;;;;;;;;;5044054;28;20024;-88
2021/12/09 06:36:55;;;;;;;14.65;8.95;;;;;;;;;;5078329;28;20052;-88
2021/12/09 06:39:20;;;;;;;14.13;8.10;;;;;;;;;;5061696;28;20078;-89
2021/12/09 06:41:45;;;;;;;11.23;7.55;;;;;;;;;;5081294;28;20484;-88
2021/12/09 06:44:10;;;;;;;12.80;7.88;;;;;;;;;;5064177;28;20515;-89
2021/12/09 06:46:36;;;;;;;13.35;8.23;;;;;;;;;;5062979;28;20075;-89
2021/12/09 06:49:01;;;;;;;13.52;8.55;;;;;;;;;;5062834;28;20100;-88
2021/12/09 06:51:26;;;;;;;16.83;9.93;;;;;;;;;;5079222;28;20044;-88
2021/12/09 06:53:52;;;;;;;14.77;8.70;;;;;;;;;;5061850;28;20040;-88
2021/12/09 06:56:17;;;;;;;16.50;9.85;;;;;;;;;;5060600;28;20021;-89
2021/12/09 06:58:42;;;;;;;18.50;10.60;;;;;;;;;;5078773;28;20036;-88
2021/12/09 07:01:08;;;;;;;15.57;9.27;;;;;;;;;;5079089;28;20033;-88
2021/12/09 07:03:40;;;;;;;12.60;8.38;;;;;;;;;;5043524;28;20047;-89
2021/12/09 07:06:11;;;;;;;14.98;8.82;;;;;;;;;;5043080;28;20037;-89
2021/12/09 07:08:44;;;;;;;14.00;8.35;;;;;;;;;;5043590;28;20027;-89
2021/12/09 07:11:12;;;;;;;11.60;7.63;;;;;;;;;;5043226;28;20032;-89
2021/12/09 07:13:41;;;;;;;12.82;8.48;;;;;;;;;;5059859;28;20042;-88
2021/12/09 07:16:06;;;;;;;15.68;10.02;;;;;;;;;;5044295;28;20032;-89
2021/12/09 07:18:31;;;;;;;12.52;8.10;;;;;;;;;;5044756;28;20569;-88
2021/12/09 07:20:57;;;;;;;12.77;8.00;;;;;;;;;;5045274;28;20373;-88
2021/12/09 07:23:22;;;;;;;12.43;7.38;;;;;;;;;;5060911;28;20045;-89
2021/12/09 07:25:47;;;;;;;12.07;6.93;;;;;;;;;;5078811;28;20016;-89
2021/12/09 07:28:13;;;;;;;13.50;8.13;;;;;;;;;;5060939;28;20122;-89
2021/12/09 07:30:38;;;;;;;14.45;7.88;;;;;;;;;;5043999;28;20032;-88
2021/12/09 07:33:04;;;;;;;14.82;8.60;;;;;;;;;;5080550;28;20032;-88
2021/12/09 07:35:30;;;;;;;11.82;6.93;;;;;;;;;;5061778;28;20050;-88
2021/12/09 07:37:56;;;;;;;13.88;8.23;;;;;;;;;;5061010;28;20046;-89
2021/12/09 07:40:21;;;;;;;18.67;10.43;;;;;;;;;;5079353;28;20060;-88
2021/12/09 07:42:46;;;;;;;15.70;10.27;;;;;;;;;;5061737;28;20044;-89
2021/12/09 07:45:12;;;;;;;15.07;8.60;;;;;;;;;;5045655;28;20039;-90
2021/12/09 07:47:37;;;;;;;14.50;8.48;;;;;;;;;;5045820;28;20028;-89
2021/12/09 07:50:02;;;;;;;12.13;7.85;;;;;;;;;;5059962;28;20518;-89
2021/12/09 07:52:28;;;;;;;15.10;8.50;;;;;;;;;;5060710;28;20388;-89
2021/12/09 07:54:55;;;;;;;14.55;9.48;;;;;;;;;;5078584;28;20082;-90
2021/12/09 07:57:20;;;;;;;15.55;9.68;;;;;;;;;;5060066;28;20366;-90
2021/12/09 07:59:45;;;;;;;13.35;7.90;;;;;;;;;;5059948;28;20086;-89
2021/12/09 08:02:11;;;;;;;11.35;7.10;;;;;;;;;;5058880;28;20491;-89
2021/12/09 08:04:37;;;;;;;14.93;8.80;;;;;;;;;;5042337;28;20436;-89
2021/12/09 08:07:02;;;;;;;12.23;7.35;;;;;;;;;;5059039;28;20039;-88
2021/12/09 08:09:30;;;;;;;13.07;7.97;;;;;;;;;;5077132;28;20388;-89
2021/12/09 08:11:56;;;;;;;12.48;7.65;;;;;;;;;;5043718;28;20055;-88
2021/12/09 08:14:21;;;;;;;13.50;7.82;;;;;;;;;;5075931;28;20116;-88
2021/12/09 08:16:56;;;;;;;16.83;8.60;;;;;;;;;;5057493;28;20431;-87
2021/12/09 08:19:22;;;;;;;14.13;8.18;;;;;;;;;;5062826;28;20075;-87
2021/12/09 08:21:47;;;;;;;12.82;7.50;;;;;;;;;;5062639;28;20028;-88
2021/12/09 08:24:12;;;;;;;13.68;7.30;;;;;;;;;;5079654;28;20527;-86
2021/12/09 08:26:38;;;;;;;12.18;6.85;;;;;;;;;;5079410;28;20028;-87
2021/12/09 08:29:03;;;;;;;12.00;7.32;;;;;;;;;;5062079;28;20037;-88
2021/12/09 08:31:32;;;;;;;10.88;6.80;;;;;;;;;;5062023;28;20052;-88
2021/12/09 08:33:57;;;;;;;13.20;7.32;;;;;;;;;;5080572;28;20039;-88
2021/12/09 08:36:23;;;;;;;17.00;8.57;;;;;;;;;;5064108;28;20103;-87
2021/12/09 08:38:48;;;;;;;13.20;7.72;;;;;;;;;;5080341;28;20044;-88
2021/12/09 08:41:32;;;;;;;16.17;10.18;;;;;;;;;;5078504;28;20036;-90
2021/12/09 08:43:57;;;;;;;12.75;7.63;;;;;;;;;;5077357;28;20400;-90
2021/12/09 08:46:23;;;;;;;12.23;6.88;;;;;;;;;;5060036;28;20033;-88
2021/12/09 08:48:48;;;;;;;10.35;6.70;;;;;;;;;;5075927;28;20480;-88
2021/12/09 08:51:14;;;;;;;11.85;7.50;;;;;;;;;;5042277;28;20036;-88
2021/12/09 08:53:39;;;;;;;10.75;7.22;;;;;;;;;;5042186;28;20036;-88
2021/12/09 08:56:04;;;;;;;11.88;7.18;;;;;;;;;;5042997;28;20033;-88
2021/12/09 08:58:30;;;;;;;11.90;7.45;;;;;;;;;;5059489;28;20047;-88
2021/12/09 09:00:57;;;;;;;11.52;7.63;;;;;;;;;;5059734;28;20039;-88
2021/12/09 09:03:22;;;;;;;11.75;6.95;;;;;;;;;;5058664;28;20021;-89
2021/12/09 09:05:50;;;;;;;10.23;6.50;;;;;;;;;;5077232;28;20101;-89
2021/12/09 09:08:19;;;;;;;12.48;7.30;;;;;;;;;;5058663;28;20043;-89
2021/12/09 09:10:45;;;;;;;9.00;6.60;;;;;;;;;;5041660;28;20043;-87
2021/12/09 09:13:10;;;;;;;10.45;6.07;;;;;;;;;;5079322;28;20036;-86
2021/12/09 09:15:36;;;;;;;10.55;6.50;;;;;;;;;;5078086;28;20064;-88
2021/12/09 09:18:01;;;;;;;11.77;7.57;;;;;;;;;;5076765;28;20105;-87
2021/12/09 09:20:26;;;;;;;13.05;8.13;;;;;;;;;;5061810;28;20039;-87
2021/12/09 09:22:52;;;;;;;14.38;8.77;;;;;;;;;;5078100;28;20037;-87
2021/12/09 09:25:19;;;;;;;9.73;6.55;;;;;;;;;;5078482;28;20472;-86
2021/12/09 09:27:45;;;;;;;8.38;5.07;;;;;;;;;;5060988;28;20064;-86
2021/12/09 09:30:14;;;;;;;9.70;6.13;;;;;;;;;;5079437;28;20039;-86
2021/12/09 09:32:39;;;;;;;9.75;6.38;;;;;;;;;;5079474;28;20028;-87
2021/12/09 09:35:04;;;;;;;10.65;6.78;;;;;;;;;;5081564;28;20470;-87
2021/12/09 09:37:30;;;;;;;11.15;6.47;;;;;;;;;;5064250;28;20047;-87
2021/12/09 09:39:55;;;;;;;13.75;8.30;;;;;;;;;;5081616;28;20048;-87
2021/12/09 09:42:45;;;;;;;12.90;7.85;;;;;;;;;;5082370;28;20033;-87
2021/12/09 09:45:06;;;;;;;15.77;8.80;;;;;;;;;;5080106;28;20135;-87
2021/12/09 09:47:31;;;;;;;11.65;7.40;;;;;;;;;;5083048;28;20044;-87
2021/12/09 09:49:56;;;;;;;7.15;4.60;;;;;;;;;;5064838;28;20067;-87
2021/12/09 09:52:21;;;;;;;9.75;5.70;;;;;;;;;;5082743;28;20090;-88
2021/12/09 09:54:47;;;;;;;11.23;6.63;;;;;;;;;;5064432;28;20039;-88
2021/12/09 09:57:12;;;;;;;7.80;4.32;;;;;;;;;;5064560;28;20039;-86
2021/12/09 09:59:40;;;;;;;8.57;4.95;;;;;;;;;;5082063;28;20052;-86
2021/12/09 10:02:05;;;;;;;10.68;4.95;;;;;;;;;;5079201;28;20037;-87
2021/12/09 10:04:44;;;;;;;7.13;3.78;;;;;;;;;;5081426;28;20032;-87
2021/12/09 10:07:09;;;;;;;5.57;3.15;;;;;;;;;;5081245;28;20028;-86
2021/12/09 10:09:34;;;;;;;5.65;3.20;;;;;;;;;;5047171;28;20048;-87
2021/12/09 10:12:00;;;;;;;3.22;2.00;;;;;;;;;;5081660;28;20020;-87
2021/12/09 10:14:26;;;;;;;2.28;1.00;;;;;;;;;;5081625;28;20052;-87
2021/12/09 10:16:51;;;;;;;1.80;1.23;;;;;;;;;;5062770;28;20028;-87
2021/12/09 10:19:17;;;;;;;2.50;1.30;;;;;;;;;;5046729;28;20500;-87
2021/12/09 10:21:42;;;;;;;0.70;0.70;;;;;;;;;;5081733;28;20035;-87
2021/12/09 10:24:07;;;;;;;0.30;0.30;;;;;;;;;;5082113;28;20519;-87
2021/12/09 10:26:33;;;;;;;0.70;0.60;;;;;;;;;;5081319;28;20094;-87
2021/12/09 10:28:58;;;;;;;0.30;0.30;;;;;;;;;;5081020;28;20431;-87
2021/12/09 10:31:24;;;;;;;0.43;0.40;;;;;;;;;;5045860;28;20029;-87
2021/12/09 10:33:53;;;;;;;0.47;0.47;;;;;;;;;;5063439;28;20036;-87
2021/12/09 10:36:18;;;;;;;0.63;0.57;;;;;;;;;;5062745;28;20086;-87
2021/12/09 10:38:45;;;;;;;0.70;0.70;;;;;;;;;;5081332;28;20037;-87
2021/12/09 10:41:11;;;;;;;0.60;0.60;;;;;;;;;;5063166;28;20037;-87
2021/12/09 10:43:36;;;;;;;0.70;0.45;;;;;;;;;;5046957;28;20040;-87
2021/12/09 10:46:01;;;;;;;1.25;0.88;;;;;;;;;;5046272;28;20047;-86
2021/12/09 10:48:32;;;;;;;0.68;0.60;;;;;;;;;;5081215;28;20032;-88
2021/12/09 10:55:51;;;;;;;1.13;0.60;;;;;;;;;;5080927;28;20029;-87
2021/12/09 10:58:16;;;;;;;0.85;0.60;;;;;;;;;;5080626;28;20054;-87
2021/12/09 11:00:41;;;;;;;0.57;0.52;;;;;;;;;;5062509;28;20031;-88
2021/12/09 11:03:07;;;;;;;1.05;0.70;;;;;;;;;;5067194;28;20028;-84
2021/12/09 11:05:32;;;;;;;0.82;0.68;;;;;;;;;;5063545;28;20041;-88
2021/12/09 11:07:57;;;;;;;1.58;0.90;;;;;;;;;;5098439;28;20048;-84
2021/12/09 11:10:22;;;;;;;1.60;1.00;;;;;;;;;;5080819;28;20036;-85
2021/12/09 11:12:48;;;;;;;0.90;0.70;;;;;;;;;;5098849;28;20051;-85
2021/12/09 11:15:18;;;;;;;1.45;0.77;;;;;;;;;;5081197;28;20055;-87
2021/12/09 11:17:46;;;;;;;0.70;0.70;;;;;;;;;;5081864;28;20047;-86
2021/12/09 11:20:11;;;;;;;0.70;0.70;;;;;;;;;;5096450;28;20040;-87
2021/12/09 11:22:38;;;;;;;1.13;0.95;;;;;;;;;;5080121;28;20135;-87
2021/12/09 11:25:05;;;;;;;1.40;1.00;;;;;;;;;;5062508;28;20029;-88
2021/12/09 11:27:31;;;;;;;1.27;0.90;;;;;;;;;;5081604;28;20024;-88
2021/12/09 11:30:07;;;;;;;1.10;0.88;;;;;;;;;;5063194;28;20046;-88
2021/12/09 11:35:10;;;;;;;2.40;1.00;;;;;;;;;;5079406;28;20036;-88
2021/12/09 11:37:44;;;;;;;1.60;1.20;;;;;;;;;;5081708;28;20066;-88
2021/12/09 11:40:09;;;;;;;2.40;1.20;;;;;;;;;;5063202;28;20392;-88
2021/12/09 11:42:45;;;;;;;1.48;1.15;;;;;;;;;;5079635;28;20507;-89
2021/12/09 11:45:10;;;;;;;1.27;1.10;;;;;;;;;;5080412;28;20100;-89
2021/12/09 11:47:36;;;;;;;1.55;1.20;;;;;;;;;;5080065;28;20577;-89
2021/12/09 11:50:01;;;;;;;2.83;1.10;;;;;;;;;;5063405;28;20059;-88
2021/12/09 11:52:28;;;;;;;1.20;1.05;;;;;;;;;;5080626;28;20043;-88
2021/12/09 11:55:00;;;;;;;1.92;1.10;;;;;;;;;;5061789;28;20103;-89
2021/12/09 12:11:11;;;;;;;2.47;1.60;;;;;;;;;;5080690;28;20495;-89
2021/12/09 12:11:20;;;;;;;2.00;1.45;;;;;;;;;;5059364;28;20049;-88
2021/12/09 12:13:57;;;;;;;4.25;2.88;;;;;;;;;;5061379;28;20375;-87
2021/12/09 12:16:23;;;;;;;7.55;4.25;;;;;;;;;;5077231;28;20440;-87
2021/12/09 12:18:57;;;;;;;2.00;1.60;;;;;;;;;;5060073;28;20426;-87
2021/12/09 12:21:45;;;;;;;4.15;2.75;;;;;;;;;;5078419;28;20043;-88
2021/12/09 12:24:33;;;;;;;2.75;1.92;;;;;;;;;;5078540;28;20032;-87
2021/12/09 12:27:05;;;;;;;2.50;1.95;;;;;;;;;;5078180;28;20488;-88
2021/12/09 12:34:38;;;;;;;2.85;2.10;;;;;;;;;;5078207;28;20365;-87
2021/12/09 12:37:11;;;;;;;2.75;2.08;;;;;;;;;;5078327;28;20059;-87
2021/12/09 12:42:09;;;;;;;4.38;2.35;;;;;;;;;;5077528;28;20064;-88
2021/12/09 12:44:36;;;;;;;3.67;2.38;;;;;;;;;;5044413;28;20549;-88
2021/12/09 12:47:15;;;;;;;3.53;2.47;;;;;;;;;;5078265;28;20017;-87
2021/12/09 12:49:47;;;;;;;3.53;2.30;;;;;;;;;;5078575;28;20059;-88
2021/12/09 12:52:16;;;;;;;3.20;2.30;;;;;;;;;;5078823;28;20040;-88
2021/12/09 12:57:17;;;;;;;3.58;2.60;;;;;;;;;;5078053;28;20035;-88
2021/12/09 12:59:42;;;;;;;4.75;2.40;;;;;;;;;;5078030;28;20044;-87
2021/12/09 13:05:08;;;;;;;9.40;4.40;;;;;;;;;;5077867;28;20431;-85
2021/12/09 13:07:50;;;;;;;4.90;3.00;;;;;;;;;;5079294;28;20024;-88
2021/12/09 13:10:19;;;;;;;3.53;2.67;;;;;;;;;;5082066;28;20064;-88
2021/12/09 13:12:55;;;;;;;4.07;2.55;;;;;;;;;;5082799;28;20056;-87
2021/12/09 13:15:29;;;;;;;4.95;2.90;;;;;;;;;;5063633;28;20116;-88
2021/12/09 13:18:03;;;;;;;3.67;2.33;;;;;;;;;;5081367;28;20051;-87
2021/12/09 13:20:28;;;;;;;5.35;2.53;;;;;;;;;;5081051;28;20400;-86
2021/12/09 13:22:55;;;;;;;3.85;2.70;;;;;;;;;;5080603;28;20044;-86
2021/12/09 13:25:25;;;;;;;4.40;2.75;;;;;;;;;;5081580;28;20036;-86
2021/12/09 13:27:56;;;;;;;4.53;3.03;;;;;;;;;;5081794;28;20025;-86
2021/12/09 13:33:35;;;;;;;6.50;3.63;;;;;;;;;;5079997;28;20033;-86
2021/12/09 13:48:44;;;;;;;7.40;4.22;;;;;;;;;;5079687;28;20387;-86
2021/12/09 13:51:20;;;;;;;6.90;4.60;;;;;;;;;;5061927;28;20063;-87
2021/12/09 13:56:49;;;;;;;8.10;3.50;;;;;;;;;;4996985;28;20069;-88
2021/12/09 13:59:14;;;;;;;5.85;3.60;;;;;;;;;;4998810;28;20498;-87
2021/12/09 14:01:40;;;;;;;6.40;4.05;;;;;;;;;;4999726;28;20022;-88
2021/12/09 14:04:05;;;;;;;6.25;3.63;;;;;;;;;;4999187;28;20065;-87
2021/12/09 14:06:30;;;;;;;8.35;4.18;;;;;;;;;;4998283;28;20526;-88
2021/12/09 14:08:57;;;;;;;5.15;3.45;;;;;;;;;;5002018;28;20446;-88
2021/12/09 14:11:30;;;;;;;5.63;3.35;;;;;;;;;;5005470;28;20109;-89
2021/12/09 14:14:03;;;;;;;6.78;3.55;;;;;;;;;;5001223;28;20050;-89
2021/12/09 14:21:45;;;;;;;5.75;3.08;;;;;;;;;;4990160;28;20042;-86
2021/12/09 14:24:12;;;;;;;4.75;2.88;;;;;;;;;;5017608;28;20045;-87
2021/12/09 14:26:38;;;;;;;6.60;3.72;;;;;;;;;;5024582;28;20145;-87
2021/12/09 14:29:03;;;;;;;6.53;3.47;;;;;;;;;;5079813;28;20119;-86
2021/12/09 14:31:28;;;;;;;5.28;3.30;;;;;;;;;;5079469;28;20036;-86
2021/12/09 14:33:54;;;;;;;5.68;3.63;;;;;;;;;;5079835;28;20029;-87
2021/12/09 14:36:19;;;;;;;5.32;2.60;;;;;;;;;;5081165;28;20396;-87
2021/12/09 14:38:45;;;;;;;3.17;2.35;;;;;;;;;;5062840;28;20060;-86
2021/12/09 14:41:10;;;;;;;3.97;2.58;;;;;;;;;;5081741;28;20474;-88
2021/12/09 14:43:35;;;;;;;4.22;1.98;;;;;;;;;;5060539;28;20090;-88
2021/12/09 14:46:02;;;;;;;5.68;2.45;;;;;;;;;;5078680;28;20040;-88
2021/12/09 14:48:27;;;;;;;4.15;2.53;;;;;;;;;;5078196;28;20056;-87
2021/12/09 14:50:52;;;;;;;4.60;2.88;;;;;;;;;;5077174;28;20032;-86
2021/12/09 14:53:18;;;;;;;4.38;2.80;;;;;;;;;;5078532;28;20109;-86
2021/12/09 14:55:44;;;;;;;4.72;2.60;;;;;;;;;;5060667;28;20032;-87
2021/12/09 14:58:09;;;;;;;6.05;3.05;;;;;;;;;;5078292;28;20032;-86
2021/12/09 15:00:34;;;;;;;7.80;3.83;;;;;;;;;;5079364;28;20033;-87
2021/12/09 15:03:02;;;;;;;7.25;3.83;;;;;;;;;;5080518;28;20033;-87
2021/12/09 15:05:28;;;;;;;3.90;2.35;;;;;;;;;;5062278;28;20021;-86
2021/12/09 15:08:02;;;;;;;5.22;3.47;;;;;;;;;;5080581;28;20024;-86
2021/12/09 15:10:29;;;;;;;5.65;2.92;;;;;;;;;;5081450;28;20487;-86
2021/12/09 15:12:55;;;;;;;5.55;2.95;;;;;;;;;;5080960;28;20071;-86
2021/12/09 15:15:21;;;;;;;4.75;3.00;;;;;;;;;;5080364;28;20047;-86
2021/12/09 15:17:47;;;;;;;7.10;3.20;;;;;;;;;;5080011;28;20052;-86
2021/12/09 15:20:13;;;;;;;8.48;3.50;;;;;;;;;;5080276;28;20108;-87
2021/12/09 15:22:39;;;;;;;7.55;3.47;;;;;;;;;;5077644;28;20037;-87
2021/12/09 15:25:06;;;;;;;5.93;3.50;;;;;;;;;;5077475;28;20500;-86
2021/12/09 15:27:31;;;;;;;4.80;3.22;;;;;;;;;;5077584;28;20051;-86
2021/12/09 15:29:56;;;;;;;7.82;3.10;;;;;;;;;;5076936;28;20496;-85
2021/12/09 15:32:22;;;;;;;5.70;2.90;;;;;;;;;;5076194;28;20104;-87